Time;durP1;ratioP1;P1;durP2;ratioP2;P2;SDS_P1;SDS_P2;PMS_P1;PMS_P2;Temp;Humidity;BMP_temperature;BMP_pressure;BME280_temperature;BME280_humidity;BME280_pressure;Samples;Min_cycle;Max_cycle;Signal;HPM_P1;HPM_P2
2022/05/09 00:02:25;;;;;;;6.85;5.07;;;;;;;-140.79;100.00;63287.88;5066098;28;20028;-48
2022/05/09 00:04:50;;;;;;;6.45;4.78;;;;;;;-140.79;100.00;63287.88;5066479;28;20025;-48
2022/05/09 00:07:16;;;;;;;6.30;4.50;;;;;;;-140.79;100.00;63287.88;5066277;28;20483;-48
2022/05/09 00:09:42;;;;;;;8.00;4.70;;;;;;;-140.79;100.00;63287.88;5066088;28;20494;-48
2022/05/09 00:12:08;;;;;;;6.78;4.72;;;;;;;-140.79;100.00;63287.88;5066282;28;20115;-48
2022/05/09 00:14:33;;;;;;;7.82;5.00;;;;;;;-140.79;100.00;63287.88;5065712;28;20027;-48
2022/05/09 00:16:59;;;;;;;7.32;5.03;;;;;;;-140.79;100.00;63287.88;5065527;28;20024;-47
2022/05/09 00:19:24;;;;;;;7.65;4.95;;;;;;;-140.79;100.00;63287.88;5066598;28;20051;-48
2022/05/09 00:21:50;;;;;;;7.75;5.00;;;;;;;-140.79;100.00;63287.88;5065937;28;20499;-48
2022/05/09 00:24:17;;;;;;;6.68;4.70;;;;;;;-140.79;100.00;63287.88;5065704;28;20060;-47
2022/05/09 00:26:43;;;;;;;7.35;4.93;;;;;;;-140.79;100.00;63287.88;5065926;28;20192;-48
2022/05/09 00:29:10;;;;;;;8.02;5.63;;;;;;;-140.79;100.00;63287.88;5066030;28;20089;-50
2022/05/09 00:31:36;;;;;;;6.18;4.78;;;;;;;-140.79;100.00;63287.88;5065292;28;20415;-48
2022/05/09 00:34:01;;;;;;;7.15;5.25;;;;;;;-140.79;100.00;63287.88;5065922;28;20036;-48
2022/05/09 00:36:27;;;;;;;6.38;4.78;;;;;;;-140.79;100.00;63287.88;5065151;28;20021;-48
2022/05/09 00:38:52;;;;;;;6.13;4.55;;;;;;;-140.79;100.00;63287.88;5047826;28;20021;-48
2022/05/09 00:44:09;;;;;;;6.97;4.75;;;;;;;-140.79;100.00;63287.88;5065807;28;20054;-47
2022/05/09 00:46:36;;;;;;;6.65;4.70;;;;;;;-140.79;100.00;63287.88;5065339;28;20103;-47
2022/05/09 00:49:23;;;;;;;6.78;4.70;;;;;;;-140.79;100.00;63287.88;5065853;28;20017;-48
2022/05/09 00:52:01;;;;;;;7.10;4.93;;;;;;;-140.79;100.00;63287.88;5064935;28;20691;-48
2022/05/09 00:54:29;;;;;;;6.80;4.53;;;;;;;-140.79;100.00;63287.88;5065361;28;20119;-47
2022/05/09 00:57:00;;;;;;;6.57;4.63;;;;;;;-140.79;100.00;63287.88;5031311;28;20419;-48
2022/05/09 00:59:26;;;;;;;7.13;4.78;;;;;;;-140.79;100.00;63287.88;5065362;28;20067;-49
2022/05/09 01:01:52;;;;;;;6.25;4.50;;;;;;;-140.79;100.00;63287.88;5030564;28;20104;-49
2022/05/09 01:04:21;;;;;;;6.75;4.85;;;;;;;-140.79;100.00;63287.88;5065131;28;20059;-48
2022/05/09 01:06:47;;;;;;;7.00;4.40;;;;;;;-140.79;100.00;63287.88;5047530;28;20032;-49
2022/05/09 01:09:12;;;;;;;6.07;4.72;;;;;;;-140.79;100.00;63287.88;5047223;28;20089;-48
2022/05/09 01:11:38;;;;;;;7.22;4.85;;;;;;;-140.79;100.00;63287.88;5065340;28;20480;-48
2022/05/09 01:14:12;;;;;;;6.68;4.63;;;;;;;-140.79;100.00;63287.88;5047276;28;20029;-48
2022/05/09 01:16:38;;;;;;;6.57;4.63;;;;;;;-140.79;100.00;63287.88;5064578;28;20753;-48
2022/05/09 01:19:24;;;;;;;7.22;4.65;;;;;;;-140.79;100.00;63287.88;5030901;28;20120;-48
2022/05/09 01:21:50;;;;;;;5.88;4.53;;;;;;;-140.79;100.00;63287.88;5064960;28;20488;-49
2022/05/09 01:24:20;;;;;;;6.07;4.25;;;;;;;-140.79;100.00;63287.88;5064819;28;20085;-48
2022/05/09 01:26:46;;;;;;;6.18;4.57;;;;;;;-140.79;100.00;63287.88;5064848;28;20059;-49
2022/05/09 01:29:23;;;;;;;6.00;4.22;;;;;;;-140.79;100.00;63287.88;5064661;28;20044;-48
2022/05/09 01:31:49;;;;;;;5.68;4.28;;;;;;;-140.79;100.00;63287.88;5064207;28;20947;-48
2022/05/09 01:34:15;;;;;;;6.13;4.35;;;;;;;-140.79;100.00;63287.88;5064737;28;20044;-48
2022/05/09 01:36:41;;;;;;;6.05;4.55;;;;;;;-140.79;100.00;63287.88;5064632;28;20028;-47
2022/05/09 01:39:10;;;;;;;7.72;4.32;;;;;;;-140.79;100.00;63287.88;5064484;28;20039;-49
2022/05/09 01:41:38;;;;;;;6.22;4.55;;;;;;;-140.79;100.00;63287.88;5046820;28;20507;-49
2022/05/09 01:44:04;;;;;;;6.38;4.07;;;;;;;-140.79;100.00;63287.88;5064585;28;20024;-48
2022/05/09 01:46:30;;;;;;;6.43;4.65;;;;;;;-140.79;100.00;63287.88;5063690;28;20051;-48
2022/05/09 01:51:41;;;;;;;8.27;4.40;;;;;;;-140.79;100.00;63287.88;5064735;28;20032;-49
2022/05/09 01:54:06;;;;;;;5.95;4.22;;;;;;;-140.79;100.00;63287.88;5063920;28;20035;-48
2022/05/09 01:56:34;;;;;;;5.82;4.10;;;;;;;-140.79;100.00;63287.88;5064170;28;20029;-51
2022/05/09 01:59:00;;;;;;;5.88;4.18;;;;;;;-140.79;100.00;63287.88;5064346;28;20028;-48
2022/05/09 02:01:27;;;;;;;5.55;3.97;;;;;;;-140.79;100.00;63287.88;5063760;28;20032;-48
2022/05/09 02:03:52;;;;;;;6.47;3.92;;;;;;;-140.79;100.00;63287.88;5046095;28;20020;-48
2022/05/09 02:06:18;;;;;;;7.50;3.97;;;;;;;-140.79;100.00;63287.88;5064014;28;20483;-48
2022/05/09 02:08:44;;;;;;;6.15;4.30;;;;;;;-140.79;100.00;63287.88;5063909;28;20029;-53
2022/05/09 02:11:09;;;;;;;6.10;4.15;;;;;;;-140.79;100.00;63287.88;5045893;28;20466;-48
2022/05/09 02:13:35;;;;;;;6.93;4.20;;;;;;;-140.79;100.00;63287.88;5064119;28;20552;-49
2022/05/09 02:16:01;;;;;;;7.47;4.65;;;;;;;-140.79;100.00;63287.88;5063192;28;20025;-49
2022/05/09 02:18:31;;;;;;;6.30;4.30;;;;;;;-140.79;100.00;63287.88;5067265;28;20131;-49
2022/05/09 02:20:57;;;;;;;5.20;3.80;;;;;;;-140.79;100.00;63287.88;5052401;28;20035;-49
2022/05/09 02:23:22;;;;;;;5.05;3.70;;;;;;;-140.79;100.00;63287.88;5070827;28;20029;-48
2022/05/09 02:25:49;;;;;;;4.72;3.58;;;;;;;-140.79;100.00;63287.88;5066203;28;20024;-47
2022/05/09 02:28:14;;;;;;;5.72;4.00;;;;;;;-140.79;100.00;63287.88;5044778;28;20044;-48
2022/05/09 02:30:40;;;;;;;5.07;3.58;;;;;;;-140.79;100.00;63287.88;5063253;28;20135;-49
2022/05/09 02:33:06;;;;;;;5.55;3.92;;;;;;;-140.79;100.00;63287.88;5063710;28;20090;-48
2022/05/09 02:35:33;;;;;;;5.95;3.70;;;;;;;-140.79;100.00;63287.88;5046046;28;20033;-48
2022/05/09 02:37:58;;;;;;;5.57;4.07;;;;;;;-140.79;100.00;63287.88;5063943;28;20263;-49
2022/05/09 02:40:24;;;;;;;5.97;3.70;;;;;;;-140.79;100.00;63287.88;5063447;28;20622;-49
2022/05/09 02:42:51;;;;;;;5.07;3.72;;;;;;;-140.79;100.00;63287.88;5063449;28;20024;-48
2022/05/09 02:45:16;;;;;;;4.63;3.55;;;;;;;-140.79;100.00;63287.88;5063280;28;20178;-48
2022/05/09 02:47:42;;;;;;;5.63;3.88;;;;;;;-140.79;100.00;63287.88;5063250;28;20507;-49
2022/05/09 02:50:08;;;;;;;5.57;3.58;;;;;;;-140.79;100.00;63287.88;5063551;28;21072;-48
2022/05/09 02:52:34;;;;;;;5.25;3.70;;;;;;;-140.79;100.00;63287.88;5045477;28;20052;-48
2022/05/09 02:54:59;;;;;;;4.57;3.60;;;;;;;-140.79;100.00;63287.88;5045313;28;20112;-49
2022/05/09 02:57:25;;;;;;;5.53;3.80;;;;;;;-140.79;100.00;63287.88;5063596;28;20036;-48
2022/05/09 02:59:50;;;;;;;5.15;3.60;;;;;;;-140.79;100.00;63287.88;5067190;28;20102;-48
2022/05/09 03:02:16;;;;;;;4.72;3.42;;;;;;;-140.79;100.00;63287.88;5069929;28;20016;-48
2022/05/09 03:04:41;;;;;;;4.95;3.53;;;;;;;-140.79;100.00;63287.88;5069993;28;20274;-49
2022/05/09 03:07:12;;;;;;;5.50;3.65;;;;;;;-140.79;100.00;63287.88;5070100;28;20760;-47
2022/05/09 03:09:38;;;;;;;4.45;3.63;;;;;;;-140.79;100.00;63287.88;5051818;28;20560;-48
2022/05/09 03:12:07;;;;;;;4.63;3.30;;;;;;;-140.79;100.00;63287.88;5069959;28;20027;-48
2022/05/09 03:14:33;;;;;;;4.70;3.35;;;;;;;-140.79;100.00;63287.88;5070183;28;20025;-49
2022/05/09 03:16:58;;;;;;;4.57;3.10;;;;;;;-140.79;100.00;63287.88;5069349;28;20033;-49
2022/05/09 03:19:25;;;;;;;4.28;3.35;;;;;;;-140.79;100.00;63287.88;5069927;28;20024;-48
2022/05/09 03:21:51;;;;;;;4.93;3.25;;;;;;;-140.79;100.00;63287.88;5069938;28;20031;-49
2022/05/09 03:24:16;;;;;;;4.72;3.88;;;;;;;-140.79;100.00;63287.88;5051653;28;20036;-49
2022/05/09 03:26:42;;;;;;;5.00;3.67;;;;;;;-140.79;100.00;63287.88;5069819;28;20056;-49
2022/05/09 03:29:07;;;;;;;4.80;3.17;;;;;;;-140.79;100.00;63287.88;5069781;28;20036;-49
2022/05/09 03:31:33;;;;;;;4.80;3.47;;;;;;;-140.79;100.00;63287.88;5069185;28;20024;-50
2022/05/09 03:33:58;;;;;;;5.05;3.13;;;;;;;-140.79;100.00;63287.88;5070002;28;20032;-49
2022/05/09 03:36:24;;;;;;;4.68;3.40;;;;;;;-140.79;100.00;63287.88;5069633;28;20021;-49
2022/05/09 03:38:49;;;;;;;3.95;2.95;;;;;;;-140.79;100.00;63287.88;5069350;28;20028;-50
2022/05/09 03:41:14;;;;;;;4.60;3.00;;;;;;;-140.79;100.00;63287.88;5070017;28;20032;-49
2022/05/09 03:43:40;;;;;;;5.82;3.28;;;;;;;-140.79;100.00;63287.88;5069029;28;20028;-49
2022/05/09 03:46:05;;;;;;;4.47;3.28;;;;;;;-140.79;100.00;63287.88;5068224;28;20043;-48
2022/05/09 03:48:31;;;;;;;4.15;2.95;;;;;;;-140.79;100.00;63287.88;5069111;28;20557;-49
2022/05/09 03:50:56;;;;;;;5.60;3.25;;;;;;;-140.79;100.00;63287.88;5068864;28;20702;-46
2022/05/09 03:53:23;;;;;;;5.22;3.30;;;;;;;-140.79;100.00;63287.88;5068831;28;20625;-47
2022/05/09 03:55:49;;;;;;;5.90;3.20;;;;;;;-140.79;100.00;63287.88;5068132;28;20499;-49
2022/05/09 03:58:15;;;;;;;5.53;3.65;;;;;;;-140.79;100.00;63287.88;5068850;28;20047;-47
2022/05/09 04:00:41;;;;;;;4.43;2.92;;;;;;;-140.79;100.00;63287.88;5047443;28;20021;-49
2022/05/09 04:03:06;;;;;;;4.68;3.22;;;;;;;-140.79;100.00;63287.88;5068499;28;20930;-48
2022/05/09 04:05:32;;;;;;;3.75;2.60;;;;;;;-140.79;100.00;63287.88;5068686;28;20048;-49
2022/05/09 04:07:58;;;;;;;4.15;2.85;;;;;;;-140.79;100.00;63287.88;5069180;28;20040;-51
2022/05/09 04:10:29;;;;;;;4.35;2.65;;;;;;;-140.79;100.00;63287.88;5068618;28;20085;-49
2022/05/09 04:12:55;;;;;;;6.25;3.20;;;;;;;-140.79;100.00;63287.88;5048693;28;20021;-49
2022/05/09 04:18:05;;;;;;;4.93;3.33;;;;;;;-140.79;100.00;63287.88;5065951;28;20043;-48
2022/05/09 04:20:30;;;;;;;5.28;3.33;;;;;;;-140.79;100.00;63287.88;5065241;28;20021;-51
2022/05/09 04:22:57;;;;;;;6.60;3.30;;;;;;;-140.79;100.00;63287.88;5065215;28;20025;-51
2022/05/09 04:25:22;;;;;;;5.40;2.92;;;;;;;-140.79;100.00;63287.88;5065260;28;20033;-51
2022/05/09 04:27:49;;;;;;;5.20;2.90;;;;;;;-140.79;100.00;63287.88;5065075;28;20515;-52
2022/05/09 04:30:15;;;;;;;4.35;2.83;;;;;;;-140.79;100.00;63287.88;5064991;28;20032;-51
2022/05/09 04:32:40;;;;;;;4.78;3.25;;;;;;;-140.79;100.00;63287.88;5064332;28;20055;-52
2022/05/09 04:35:09;;;;;;;6.22;3.17;;;;;;;-140.79;100.00;63287.88;5064293;28;20063;-50
2022/05/09 04:37:34;;;;;;;3.72;2.70;;;;;;;-140.79;100.00;63287.88;5065487;28;20059;-51
2022/05/09 04:40:00;;;;;;;5.78;2.92;;;;;;;-140.79;100.00;63287.88;5065404;28;20020;-51
2022/05/09 04:42:25;;;;;;;4.85;2.65;;;;;;;-140.79;100.00;63287.88;5065736;28;20777;-51
2022/05/09 04:44:50;;;;;;;4.28;2.97;;;;;;;-140.79;100.00;63287.88;5065438;28;20017;-48
2022/05/09 04:47:16;;;;;;;4.22;2.65;;;;;;;-140.79;100.00;63287.88;5064839;28;20024;-51
2022/05/09 04:49:41;;;;;;;5.30;2.88;;;;;;;-140.79;100.00;63287.88;5047148;28;20047;-51
2022/05/09 04:52:07;;;;;;;4.93;3.13;;;;;;;-140.79;100.00;63287.88;5064699;28;20036;-51
2022/05/09 04:54:32;;;;;;;5.50;2.78;;;;;;;-140.79;100.00;63287.88;5064814;28;20017;-50
2022/05/09 04:56:58;;;;;;;4.47;2.70;;;;;;;-140.79;100.00;63287.88;5064854;28;20031;-51
2022/05/09 04:59:23;;;;;;;6.13;3.03;;;;;;;-140.79;100.00;63287.88;5064703;28;20023;-51
2022/05/09 05:01:49;;;;;;;4.22;2.67;;;;;;;-140.79;100.00;63287.88;5063805;28;20392;-51
2022/05/09 05:04:16;;;;;;;4.80;2.80;;;;;;;-140.79;100.00;63287.88;5064579;28;20407;-49
2022/05/09 05:06:41;;;;;;;4.18;2.70;;;;;;;-140.79;100.00;63287.88;5064637;28;20083;-51
2022/05/09 05:09:06;;;;;;;4.95;2.90;;;;;;;-140.79;100.00;63287.88;5064956;28;20044;-52
2022/05/09 05:11:32;;;;;;;5.47;2.80;;;;;;;-140.79;100.00;63287.88;5064231;28;20032;-51
2022/05/09 05:13:57;;;;;;;7.15;3.17;;;;;;;-140.79;100.00;63287.88;5065499;28;20032;-51
2022/05/09 05:16:59;;;;;;;9.90;3.00;;;;;;;-140.79;100.00;63287.88;5064033;28;20028;-50
2022/05/09 05:19:08;;;;;;;12.38;3.15;;;;;;;-140.79;100.00;63287.88;5064441;28;20032;-51
2022/05/09 05:21:33;;;;;;;8.45;3.42;;;;;;;-140.79;100.00;63287.88;5062162;28;20023;-52
2022/05/09 05:24:00;;;;;;;13.65;3.90;;;;;;;-140.79;100.00;63287.88;5062014;28;20122;-50
2022/05/09 05:26:26;;;;;;;14.30;3.95;;;;;;;-140.79;100.00;63287.88;5064199;28;20882;-52
2022/05/09 05:28:51;;;;;;;13.75;3.60;;;;;;;-140.79;100.00;63287.88;5064777;28;20020;-51
2022/05/09 05:31:20;;;;;;;16.77;3.83;;;;;;;-140.79;100.00;63287.88;5046266;28;20855;-52
2022/05/09 05:33:46;;;;;;;18.08;4.32;;;;;;;-140.79;100.00;63287.88;5064126;28;20020;-52
2022/05/09 05:36:13;;;;;;;16.48;4.30;;;;;;;-140.79;100.00;63287.88;5064376;28;20051;-51
2022/05/09 05:38:39;;;;;;;19.85;4.60;;;;;;;-140.79;100.00;63287.88;5063800;28;20201;-51
2022/05/09 05:41:04;;;;;;;16.45;4.88;;;;;;;-140.79;100.00;63287.88;5064317;28;20016;-52
2022/05/09 05:43:29;;;;;;;18.88;4.50;;;;;;;-140.79;100.00;63287.88;5064875;28;20036;-52
2022/05/09 05:45:56;;;;;;;18.00;4.43;;;;;;;-140.79;100.00;63287.88;5062909;28;20024;-53
2022/05/09 05:48:21;;;;;;;25.20;5.75;;;;;;;-140.79;100.00;63287.88;5063042;28;20102;-52
2022/05/09 05:50:47;;;;;;;20.15;4.78;;;;;;;-140.79;100.00;63287.88;5064644;28;20034;-51
2022/05/09 05:53:12;;;;;;;25.10;4.75;;;;;;;-140.79;100.00;63287.88;5062467;28;20024;-52
2022/05/09 05:55:37;;;;;;;20.85;4.28;;;;;;;-140.79;100.00;63287.88;5063914;28;20017;-53
2022/05/09 05:58:03;;;;;;;25.30;5.30;;;;;;;-140.79;100.00;63287.88;5064579;28;20037;-52
2022/05/09 06:00:28;;;;;;;18.42;4.65;;;;;;;-140.79;100.00;63287.88;5063356;28;20063;-51
2022/05/09 06:02:54;;;;;;;15.55;4.50;;;;;;;-140.79;100.00;63287.88;5063449;28;20021;-52
2022/05/09 06:05:19;;;;;;;26.27;5.60;;;;;;;-140.79;100.00;63287.88;5064138;28;20036;-51
2022/05/09 06:07:47;;;;;;;17.83;4.70;;;;;;;-140.79;100.00;63287.88;5063693;28;20033;-52
2022/05/09 06:10:15;;;;;;;22.60;5.15;;;;;;;-140.79;100.00;63287.88;5063322;28;20028;-51
2022/05/09 06:12:40;;;;;;;26.42;5.88;;;;;;;-140.79;100.00;63287.88;5064223;28;20044;-52
2022/05/09 06:18:08;;;;;;;20.85;5.35;;;;;;;-140.79;100.00;63287.88;5030334;28;20045;-51
2022/05/09 06:20:35;;;;;;;25.75;5.47;;;;;;;-140.79;100.00;63287.88;5049786;28;20477;-51
2022/05/09 06:23:01;;;;;;;25.73;5.47;;;;;;;-140.79;100.00;63287.88;5053431;28;20093;-51
2022/05/09 06:25:27;;;;;;;19.05;4.15;;;;;;;-140.79;100.00;63287.88;5041685;28;20055;-52
2022/05/09 06:27:52;;;;;;;18.23;4.70;;;;;;;-140.79;100.00;63287.88;5039727;28;20101;-51
2022/05/09 06:30:19;;;;;;;20.13;4.55;;;;;;;-140.79;100.00;63287.88;5059084;28;20036;-51
2022/05/09 06:32:44;;;;;;;20.73;5.38;;;;;;;-140.79;100.00;63287.88;5058265;28;20024;-51
2022/05/09 06:35:14;;;;;;;21.88;6.57;;;;;;;-140.79;100.00;63287.88;5059002;28;20086;-51
2022/05/09 06:37:39;;;;;;;15.85;4.55;;;;;;;-140.79;100.00;63287.88;5058478;28;20070;-52
2022/05/09 06:40:05;;;;;;;15.85;5.00;;;;;;;-140.79;100.00;63287.88;5057394;28;20028;-50
2022/05/09 06:42:31;;;;;;;15.88;4.40;;;;;;;-140.79;100.00;63287.88;5059435;28;20020;-51
2022/05/09 06:44:56;;;;;;;18.80;4.60;;;;;;;-140.79;100.00;63287.88;5027020;28;20040;-51
2022/05/09 06:47:22;;;;;;;17.52;4.22;;;;;;;-140.79;100.00;63287.88;5062313;28;20021;-51
2022/05/09 06:49:47;;;;;;;17.20;5.05;;;;;;;-140.79;100.00;63287.88;5063060;28;20055;-52
2022/05/09 06:52:13;;;;;;;18.20;5.05;;;;;;;-140.79;100.00;63287.88;5057259;28;20036;-50
2022/05/09 06:54:39;;;;;;;14.30;4.22;;;;;;;-140.79;100.00;63287.88;5054930;28;20032;-51
2022/05/09 06:57:05;;;;;;;20.42;5.88;;;;;;;-140.79;100.00;63287.88;5061569;28;20651;-50
2022/05/09 06:59:33;;;;;;;15.93;4.50;;;;;;;-140.79;100.00;63287.88;5058615;28;20718;-51
2022/05/09 07:01:59;;;;;;;17.02;4.60;;;;;;;-140.79;100.00;63287.88;5057010;28;20028;-51
2022/05/09 07:04:24;;;;;;;19.95;4.70;;;;;;;-140.79;100.00;63287.88;5056835;28;20441;-51
2022/05/09 07:06:49;;;;;;;18.90;4.78;;;;;;;-140.79;100.00;63287.88;5059948;28;20027;-50
2022/05/09 07:09:15;;;;;;;16.17;4.32;;;;;;;-140.79;100.00;63287.88;5062770;28;20040;-51
2022/05/09 07:11:41;;;;;;;17.40;4.72;;;;;;;-140.79;100.00;63287.88;5061423;28;20032;-51
2022/05/09 07:14:07;;;;;;;13.88;4.53;;;;;;;-140.79;100.00;63287.88;5043415;28;20036;-51
2022/05/09 07:16:32;;;;;;;16.17;4.78;;;;;;;-140.79;100.00;63287.88;5058328;28;20608;-50
2022/05/09 07:18:58;;;;;;;13.68;5.05;;;;;;;-140.79;100.00;63287.88;5058952;28;20024;-50
2022/05/09 07:21:24;;;;;;;17.70;5.53;;;;;;;-140.79;100.00;63287.88;5057436;28;20020;-50
2022/05/09 07:23:50;;;;;;;16.77;5.00;;;;;;;-140.79;100.00;63287.88;5059465;28;20032;-49
2022/05/09 07:26:15;;;;;;;13.70;4.75;;;;;;;-140.79;100.00;63287.88;5057299;28;20041;-51
2022/05/09 07:28:42;;;;;;;15.18;4.65;;;;;;;-140.79;100.00;63287.88;5059881;28;20028;-51
2022/05/09 07:31:08;;;;;;;19.02;4.93;;;;;;;-140.79;100.00;63287.88;5057301;28;20028;-51
2022/05/09 07:33:33;;;;;;;15.15;5.40;;;;;;;-140.79;100.00;63287.88;5060816;28;20012;-51
2022/05/09 07:35:58;;;;;;;18.30;5.10;;;;;;;-140.79;100.00;63287.88;5062949;28;20025;-51
2022/05/09 07:38:24;;;;;;;15.02;4.75;;;;;;;-140.79;100.00;63287.88;5037256;28;20021;-51
2022/05/09 07:40:49;;;;;;;16.85;4.95;;;;;;;-140.79;100.00;63287.88;5050635;28;20035;-51
2022/05/09 07:43:20;;;;;;;19.33;5.13;;;;;;;-140.79;100.00;63287.88;5058801;28;20039;-50
2022/05/09 07:45:47;;;;;;;13.63;4.75;;;;;;;-140.79;100.00;63287.88;5064080;28;20032;-52
2022/05/09 07:48:13;;;;;;;19.67;5.28;;;;;;;-140.79;100.00;63287.88;5066263;28;20090;-52
2022/05/09 07:50:38;;;;;;;18.63;5.18;;;;;;;-140.79;100.00;63287.88;5066663;28;20030;-52
2022/05/09 07:53:15;;;;;;;15.48;4.47;;;;;;;-140.79;100.00;63287.88;5064438;28;20035;-50
2022/05/09 07:55:42;;;;;;;19.08;5.05;;;;;;;-140.79;100.00;63287.88;5039959;28;20040;-52
2022/05/09 07:58:09;;;;;;;12.68;5.13;;;;;;;-140.79;100.00;63287.88;5059716;28;20031;-51
2022/05/09 08:00:37;;;;;;;17.42;4.40;;;;;;;-140.79;100.00;63287.88;5062434;28;20514;-52
2022/05/09 08:03:04;;;;;;;18.40;4.75;;;;;;;-140.79;100.00;63287.88;5038857;28;20488;-51
2022/05/09 08:05:30;;;;;;;15.32;5.05;;;;;;;-140.79;100.00;63287.88;5064972;28;20074;-51
2022/05/09 08:07:55;;;;;;;16.25;4.72;;;;;;;-140.79;100.00;63287.88;5061072;28;20458;-50
2022/05/09 08:10:21;;;;;;;14.57;4.60;;;;;;;-140.79;100.00;63287.88;5062073;28;20032;-52
2022/05/09 08:12:47;;;;;;;15.38;4.65;;;;;;;-140.79;100.00;63287.88;5059547;28;20051;-52
2022/05/09 08:15:13;;;;;;;17.42;5.05;;;;;;;-140.79;100.00;63287.88;5061230;28;20404;-52
2022/05/09 08:17:39;;;;;;;12.32;4.38;;;;;;;-140.79;100.00;63287.88;5056610;28;20476;-52
2022/05/09 08:20:05;;;;;;;14.40;4.68;;;;;;;-140.79;100.00;63287.88;5062509;28;20032;-52
2022/05/09 08:22:32;;;;;;;14.23;4.28;;;;;;;-140.79;100.00;63287.88;5061488;28;20361;-51
2022/05/09 08:24:58;;;;;;;12.88;4.40;;;;;;;-140.79;100.00;63287.88;5062282;28;20499;-52
2022/05/09 08:27:23;;;;;;;16.67;4.82;;;;;;;-140.79;100.00;63287.88;5061392;28;20047;-51
2022/05/09 08:29:51;;;;;;;13.85;4.47;;;;;;;-140.79;100.00;63287.88;5064573;28;20024;-51
2022/05/09 08:32:16;;;;;;;11.43;4.50;;;;;;;-140.79;100.00;63287.88;5046119;28;20033;-52
2022/05/09 08:34:42;;;;;;;15.10;4.68;;;;;;;-140.79;100.00;63287.88;5061418;28;20077;-52
2022/05/09 08:37:07;;;;;;;13.85;5.00;;;;;;;-140.79;100.00;63287.88;5062170;28;20032;-52
2022/05/09 08:39:32;;;;;;;11.88;4.57;;;;;;;-140.79;100.00;63287.88;5062962;28;20020;-52
2022/05/09 08:42:01;;;;;;;15.77;4.32;;;;;;;-140.79;100.00;63287.88;5062809;28;20464;-51
2022/05/09 08:44:39;;;;;;;14.90;4.13;;;;;;;-140.79;100.00;63287.88;5061605;28;20474;-51
2022/05/09 08:47:44;;;;;;;14.85;4.03;;;;;;;-140.79;100.00;63287.88;5061597;28;20095;-53
2022/05/09 08:50:29;;;;;;;9.27;4.35;;;;;;;-140.79;100.00;63287.88;5061331;28;20055;-52
2022/05/09 08:53:09;;;;;;;10.90;3.80;;;;;;;-140.79;100.00;63287.88;5044406;28;20024;-51
2022/05/09 08:55:38;;;;;;;13.13;4.30;;;;;;;-140.79;100.00;63287.88;5059195;28;20021;-51
2022/05/09 08:58:07;;;;;;;14.82;4.25;;;;;;;-140.79;100.00;63287.88;5060204;28;20062;-52
2022/05/09 09:00:32;;;;;;;15.32;4.15;;;;;;;-140.79;100.00;63287.88;5064346;28;20040;-51
2022/05/09 09:03:19;;;;;;;12.95;3.97;;;;;;;-140.79;100.00;63287.88;5039051;28;20028;-51
2022/05/09 09:05:46;;;;;;;12.75;4.15;;;;;;;-140.79;100.00;63287.88;5059617;28;20479;-52
2022/05/09 09:08:20;;;;;;;11.32;3.90;;;;;;;-140.79;100.00;63287.88;5061400;28;20168;-52
2022/05/09 09:11:22;;;;;;;10.48;3.70;;;;;;;-140.79;100.00;63287.88;5058607;28;20044;-52
2022/05/09 09:14:17;;;;;;;11.52;3.53;;;;;;;-140.79;100.00;63287.88;5042680;28;20471;-52
2022/05/09 09:16:54;;;;;;;12.95;4.80;;;;;;;-140.79;100.00;63287.88;5040678;28;20495;-53
2022/05/09 09:19:32;;;;;;;13.13;4.43;;;;;;;-140.79;100.00;63287.88;5059796;28;20692;-52
2022/05/09 09:22:22;;;;;;;15.23;5.75;;;;;;;-140.79;100.00;63287.88;5059657;28;20619;-52
2022/05/09 09:25:18;;;;;;;16.13;5.97;;;;;;;-140.79;100.00;63287.88;5029778;28;20024;-52
2022/05/09 09:27:47;;;;;;;14.20;6.57;;;;;;;-140.79;100.00;63287.88;5052653;28;20040;-52
2022/05/09 09:30:23;;;;;;;15.40;5.45;;;;;;;-140.79;100.00;63287.88;5060478;28;20032;-52
2022/05/09 09:33:06;;;;;;;15.35;5.75;;;;;;;-140.79;100.00;63287.88;5057314;28;20048;-52
2022/05/09 09:36:11;;;;;;;21.33;5.40;;;;;;;-140.79;100.00;63287.88;5057547;28;20044;-52
2022/05/09 09:38:42;;;;;;;12.80;4.55;;;;;;;-140.79;100.00;63287.88;5002085;28;20036;-53
2022/05/09 09:41:25;;;;;;;11.65;4.22;;;;;;;-140.79;100.00;63287.88;5024267;28;20036;-54
2022/05/09 09:44:06;;;;;;;11.15;4.13;;;;;;;-140.79;100.00;63287.88;5058210;28;20017;-51
2022/05/09 09:46:32;;;;;;;7.55;4.00;;;;;;;-140.79;100.00;63287.88;5043610;28;20026;-52
2022/05/09 09:49:07;;;;;;;8.90;3.88;;;;;;;-140.79;100.00;63287.88;5042406;28;20024;-51
2022/05/09 09:51:43;;;;;;;10.38;3.83;;;;;;;-140.79;100.00;63287.88;5061835;28;20024;-52
2022/05/09 09:54:08;;;;;;;10.48;3.67;;;;;;;-140.79;100.00;63287.88;5043116;28;20035;-52
2022/05/09 09:56:34;;;;;;;10.63;3.63;;;;;;;-140.79;100.00;63287.88;5056837;28;20454;-52
2022/05/09 09:59:09;;;;;;;10.23;3.33;;;;;;;-140.79;100.00;63287.88;5062243;28;20430;-52
2022/05/09 10:01:35;;;;;;;6.80;3.28;;;;;;;-140.79;100.00;63287.88;5062871;28;20427;-50
2022/05/09 10:04:09;;;;;;;7.35;3.17;;;;;;;-140.79;100.00;63287.88;5059211;28;20035;-53
2022/05/09 10:06:34;;;;;;;6.75;3.38;;;;;;;-140.79;100.00;63287.88;5039107;28;20734;-52
2022/05/09 10:09:06;;;;;;;9.00;2.70;;;;;;;-140.79;100.00;63287.88;5060924;28;20021;-53
2022/05/09 10:11:31;;;;;;;6.07;2.65;;;;;;;-140.79;100.00;63287.88;5059242;28;20078;-52
2022/05/09 10:14:02;;;;;;;7.78;2.90;;;;;;;-140.79;100.00;63287.88;5059300;28;20024;-52
2022/05/09 10:16:33;;;;;;;5.15;2.58;;;;;;;-140.79;100.00;63287.88;5042856;28;20056;-52
2022/05/09 10:19:02;;;;;;;7.25;2.90;;;;;;;-140.79;100.00;63287.88;5056132;28;20036;-52
2022/05/09 10:24:55;;;;;;;5.72;2.40;;;;;;;-140.79;100.00;63287.88;5059268;28;20051;-52
2022/05/09 10:27:20;;;;;;;7.22;2.22;;;;;;;-140.79;100.00;63287.88;5033061;28;20075;-52
2022/05/09 10:29:47;;;;;;;7.47;2.83;;;;;;;-140.79;100.00;63287.88;5055780;28;20491;-52
2022/05/09 10:32:13;;;;;;;5.22;2.85;;;;;;;-140.79;100.00;63287.88;5039153;28;20035;-51
2022/05/09 10:34:49;;;;;;;4.70;2.67;;;;;;;-140.79;100.00;63287.88;5042100;28;20035;-52
2022/05/09 10:37:26;;;;;;;5.25;2.40;;;;;;;-140.79;100.00;63287.88;5039505;28;20108;-51
2022/05/09 10:40:15;;;;;;;6.53;2.33;;;;;;;-140.79;100.00;63287.88;5006398;28;20020;-50
2022/05/09 10:42:46;;;;;;;5.53;2.40;;;;;;;-140.79;100.00;63287.88;5048477;28;20033;-50
2022/05/09 10:45:19;;;;;;;5.93;2.28;;;;;;;-140.79;100.00;63287.88;5040424;28;20134;-51
2022/05/09 10:47:52;;;;;;;5.88;2.40;;;;;;;-140.79;100.00;63287.88;5044168;28;20028;-51
2022/05/09 10:50:32;;;;;;;3.47;2.20;;;;;;;-140.79;100.00;63287.88;5040975;28;20195;-53
2022/05/09 10:53:03;;;;;;;6.15;2.63;;;;;;;-140.79;100.00;63287.88;5039378;28;20051;-51
2022/05/09 10:55:37;;;;;;;5.35;2.30;;;;;;;-140.79;100.00;63287.88;5058382;28;20090;-50
2022/05/09 10:58:15;;;;;;;4.00;2.30;;;;;;;-140.79;100.00;63287.88;5043269;28;20032;-51
2022/05/09 11:00:49;;;;;;;6.40;2.20;;;;;;;-140.79;100.00;63287.88;5042196;28;20031;-50
2022/05/09 11:03:34;;;;;;;3.50;1.92;;;;;;;-140.79;100.00;63287.88;5038330;28;20103;-51
2022/05/09 11:06:32;;;;;;;5.03;2.15;;;;;;;-140.79;100.00;63287.88;5061039;28;20106;-51
2022/05/09 11:08:57;;;;;;;5.13;2.22;;;;;;;-140.79;100.00;63287.88;5050881;28;20124;-50
2022/05/09 11:11:41;;;;;;;4.55;2.30;;;;;;;-140.79;100.00;63287.88;5059348;28;20463;-50
2022/05/09 11:14:37;;;;;;;4.28;2.55;;;;;;;-140.79;100.00;63287.88;5059495;28;20028;-52
2022/05/09 11:17:21;;;;;;;4.00;2.50;;;;;;;-140.79;100.00;63287.88;5062067;28;20568;-51
2022/05/09 11:20:00;;;;;;;5.95;2.50;;;;;;;-140.79;100.00;63287.88;5055461;28;20714;-51
2022/05/09 11:22:35;;;;;;;5.90;2.65;;;;;;;-140.79;100.00;63287.88;5062449;28;20400;-51
2022/05/09 11:25:07;;;;;;;5.35;2.10;;;;;;;-140.79;100.00;63287.88;5026118;28;20028;-51
2022/05/09 11:27:47;;;;;;;5.63;2.47;;;;;;;-140.79;100.00;63287.88;5063064;28;20502;-51
2022/05/09 11:30:32;;;;;;;4.05;2.17;;;;;;;-140.79;100.00;63287.88;5042680;28;20119;-51